Lemsid, Western Sahara
Current Conditions -  °F | °C
As of 9:27 AM on Friday 24 Oct 2014 (Local Time) from GMML Reporting Station
Broken Clouds Broken Clouds  
Wind Chill: 70°   Ceiling: 1100
Heat Index: 70°   Visibility: 6mi
Dew Point: 64°   Wind: 7mph
Humidity: 83%   Direction: 30°NNE
Pressure: 30.03"   Gusts: NA
Location:  26.55°N, 13.85°W
Report Text: GMML 240927Z AUTO 03006KT 9000NDV BKN011 21/18 Q1017
Loading
Personal Weather Stations






























Interactive Weather Map
Tropical Storm Tracking
New forecast layout! Learn more

10-Day Weather Forecast

Advertisements
Track Severe Weather on mobile